Celebrity Century — 9HJI9 — position and weather

sailwx.info

Track history (hours):
 
Tides and Currents Weather Stations Pressure Air Temp Water Temp Dewpoint Dewpoint Depression Visibility Wind Speed Wind Dir Waves Ship Positions

Celebrity Century

Last reported at 2020-Apr-04 09:41 UTC. Time now 2020-Apr-05 12:17 UTC.
Position N 26°30' W 079°25'.

Length 247 m; draft 8 m.

Type: Ship. MMSI: 249054000.

Date/timePositionNaut miles runAvg speedWind from/ knotsBaromVisibWave heightAir tempDewpointWater temp
2020-Apr-04 09:41N 26°30' W 079°25'3214.9
2020-Apr-04 07:30N 25°58' W 079°29'60312.1
2020-Apr-02 05:30N 21°37' W 089°22'20 6.6
2020-Apr-02 02:30N 21°26' W 089°40'0 0.3
2020-Apr-02 02:00N 21°27' W 089°40'0 0.2
2020-Apr-01 23:00N 21°27' W 089°40'0 0.2
2020-Apr-01 22:27N 21°27' W 089°40'0 0.1
2020-Apr-01 21:30N 21°27' W 089°40'0 0.1
2020-Apr-01 21:00N 21°27' W 089°40'0 0.1
2020-Apr-01 18:30N 21°27' W 089°40'0 0.0
2020-Apr-01 18:00N 21°27' W 089°40'0 0.0
2020-Apr-01 17:00N 21°27' W 089°40'0 0.0
2020-Apr-01 16:30N 21°27' W 089°40'0 0.0
2020-Apr-01 10:30N 21°27' W 089°40'0 0.0
2020-Apr-01 08:00N 21°27' W 089°40'0 0.0
2020-Apr-01 07:30N 21°27' W 089°40'0 0.0
2020-Mar-31 22:00N 21°27' W 089°40'0 0.0
2020-Mar-31 21:00N 21°27' W 089°40'0 0.2
2020-Mar-31 20:27N 21°27' W 089°40'0 0.1
2020-Mar-31 17:57N 21°27' W 089°40'0 0.0
2020-Mar-31 16:30N 21°27' W 089°40'0 0.0
2020-Mar-31 16:00N 21°27' W 089°40'0 0.0
2020-Mar-31 11:30N 21°27' W 089°40'0 0.1
2020-Mar-31 11:00N 21°27' W 089°40'0 0.0
2020-Mar-31 10:00N 21°27' W 089°40'0 0.0
2020-Mar-31 09:30N 21°27' W 089°40'0 0.0
2020-Mar-31 08:30N 21°27' W 089°40'0 0.0
2020-Mar-31 07:30N 21°27' W 089°40'0 0.0
2020-Mar-31 06:30N 21°27' W 089°40'0 0.0
2020-Mar-31 05:00N 21°27' W 089°40'0 0.1
2020-Mar-31 04:30N 21°27' W 089°40'0 0.0
2020-Mar-31 03:30N 21°27' W 089°40'0 0.1
2020-Mar-31 01:00N 21°27' W 089°40'2 1.6
2020-Mar-30 23:31N 21°27' W 089°42'6 3.1
2020-Mar-30 21:30N 21°33' W 089°39'510.2
2020-Mar-30 21:01N 21°37' W 089°37'34 9.7
2020-Mar-30 17:30N 21°58' W 089°08'9 9.2
2020-Mar-30 16:30N 21°58' W 088°58'48415.4
2020-Mar-29 09:00N 18°53' W 081°00'  
Track history (hours):
 
Tides and Currents Weather Stations Pressure Air Temp Water Temp Dewpoint Dewpoint Depression Visibility Wind Speed Wind Dir Waves Ship Positions

Celebrity Century

Last reported at 2020-Apr-04 09:41 UTC. Time now 2020-Apr-05 12:17 UTC.
Position N 26°30' W 079°25'.

Length 247 m; draft 8 m.

Type: Ship. MMSI: 249054000.

Date/timePositionNaut miles runAvg speedWind from/ knotsBaromVisibWave heightAir tempDewpointWater temp
2020-Apr-04 09:41N 26°30' W 079°25'3214.9
2020-Apr-04 07:30N 25°58' W 079°29'60312.1
2020-Apr-02 05:30N 21°37' W 089°22'20 6.6
2020-Apr-02 02:30N 21°26' W 089°40'0 0.3
2020-Apr-02 02:00N 21°27' W 089°40'0 0.2
2020-Apr-01 23:00N 21°27' W 089°40'0 0.2
2020-Apr-01 22:27N 21°27' W 089°40'0 0.1
2020-Apr-01 21:30N 21°27' W 089°40'0 0.1
2020-Apr-01 21:00N 21°27' W 089°40'0 0.1
2020-Apr-01 18:30N 21°27' W 089°40'0 0.0
2020-Apr-01 18:00N 21°27' W 089°40'0 0.0
2020-Apr-01 17:00N 21°27' W 089°40'0 0.0
2020-Apr-01 16:30N 21°27' W 089°40'0 0.0
2020-Apr-01 10:30N 21°27' W 089°40'0 0.0
2020-Apr-01 08:00N 21°27' W 089°40'0 0.0
2020-Apr-01 07:30N 21°27' W 089°40'0 0.0
2020-Mar-31 22:00N 21°27' W 089°40'0 0.0
2020-Mar-31 21:00N 21°27' W 089°40'0 0.2
2020-Mar-31 20:27N 21°27' W 089°40'0 0.1
2020-Mar-31 17:57N 21°27' W 089°40'0 0.0
2020-Mar-31 16:30N 21°27' W 089°40'0 0.0
2020-Mar-31 16:00N 21°27' W 089°40'0 0.0
2020-Mar-31 11:30N 21°27' W 089°40'0 0.1
2020-Mar-31 11:00N 21°27' W 089°40'0 0.0
2020-Mar-31 10:00N 21°27' W 089°40'0 0.0
2020-Mar-31 09:30N 21°27' W 089°40'0 0.0
2020-Mar-31 08:30N 21°27' W 089°40'0 0.0
2020-Mar-31 07:30N 21°27' W 089°40'0 0.0
2020-Mar-31 06:30N 21°27' W 089°40'0 0.0
2020-Mar-31 05:00N 21°27' W 089°40'0 0.1
2020-Mar-31 04:30N 21°27' W 089°40'0 0.0
2020-Mar-31 03:30N 21°27' W 089°40'0 0.1
2020-Mar-31 01:00N 21°27' W 089°40'2 1.6
2020-Mar-30 23:31N 21°27' W 089°42'6 3.1
2020-Mar-30 21:30N 21°33' W 089°39'510.2
2020-Mar-30 21:01N 21°37' W 089°37'34 9.7
2020-Mar-30 17:30N 21°58' W 089°08'9 9.2
2020-Mar-30 16:30N 21°58' W 088°58'48415.4
2020-Mar-29 09:00N 18°53' W 081°00'  

Dump ship's entire track history